Last 24 Hours

OV-Belmont 8000'

Hourly Data | America/Los_Angeles
as of 1/23/22 3:57 AM PST
Date & Time Temp (°F) RH (%) Dew Pt (°F) Wet Bulb (°F) Wind Dir (°) Wind Spd (mph) Wind Gust (mph) WindChill (°F) Latest Rain (In) New Snow (in) SnowDepth (in) Daily Min Temp (°F) Daily Max Temp (°F) Daily Rain (In)
1/23/22 - 0300 23.7 83 19.2 22.1 ENE | 75 6.2 13.1 17.0 0.00 0.0 105.2 23.5 25.1 0.00
1/23/22 - 0200 24.3 78 18.5 22.2 E | 82 4.6 10.3 19.1 0.00 0.0 105.2 23.8 25.1 0.00
1/23/22 - 0100 24.0 76 17.5 21.7 E | 91 4.9 14.7 19.4 0.00 0.0 105.2 23.9 25.1 0.00
1/23/22 - 0000 24.0 76 17.5 21.7 E | 88 4.7 13.9 19.7 0.00 0.0 105.2 17.9 30.8 0.00
1/22/22 - 2300 24.8 72 17.0 22.0 E | 92 9.1 22.3 16.4 0.00 0.0 105.2 17.9 30.8 0.00
1/22/22 - 2200 24.9 69 16.2 21.8 E | 96 9.6 23.2 15.0 0.00 0.0 105.3 17.9 30.8 0.00
1/22/22 - 2100 24.6 71 16.4 21.7 E | 89 9.4 29.2 15.3 0.00 0.0 105.3 17.9 30.8 0.00
1/22/22 - 2000 24.6 70 16.3 21.7 E | 83 9.4 20.2 16.0 0.00 0.0 105.3 17.9 30.8 0.00
1/22/22 - 1900 26.0 61 14.4 22.0 ENE | 68 12.2 24.6 15.1 0.00 0.0 105.3 17.9 30.8 0.00
1/22/22 - 1800 26.1 68 16.9 22.8 E | 89 11.0 22.8 15.7 0.00 0.0 105.4 17.9 30.8 0.00
1/22/22 - 1700 26.0 73 18.4 23.2 E | 98 9.3 23.8 18.6 0.00 0.0 105.4 17.9 30.8 0.00
1/22/22 - 1600 28.2 62 16.9 24.1 E | 89 9.1 24.4 22.5 0.00 0.0 105.3 17.9 30.8 0.00
1/22/22 - 1500 29.9 58 16.9 25.2 E | 95 7.9 20.3 22.5 0.00 0.0 105.4 17.9 30.5 0.00
1/22/22 - 1400 28.7 63 17.9 24.7 E | 82 9.5 21.0 19.9 0.00 0.0 105.4 17.9 30.2 0.00
1/22/22 - 1300 26.4 68 17.1 23.1 ESE | 109 9.4 20.2 18.9 0.00 0.0 105.4 17.9 29.3 0.00
1/22/22 - 1200 27.0 69 18.3 23.8 E | 81 9.0 23.6 17.4 0.00 0.0 105.4 17.9 27.0 0.00
1/22/22 - 1100 25.6 70 17.3 22.7 E | 92 8.3 18.3 16.7 0.00 0.0 105.5 17.9 26.4 0.00
1/22/22 - 1000 24.0 72 16.1 21.2 ENE | 62 12.5 25.6 11.0 0.00 0.0 105.5 17.9 24.2 0.00
1/22/22 - 0900 21.4 75 14.6 19.2 ENE | 60 13.7 27.2 7.9 0.00 0.0 105.5 17.9 21.8 0.00
1/22/22 - 0800 19.0 83 14.6 17.6 ENE | 68 10.4 24.0 7.8 0.00 0.0 105.6 17.9 21.8 0.00
1/22/22 - 0700 18.2 86 14.6 17.0 ENE | 64 11.5 22.7 6.4 0.00 0.0 105.6 18.1 21.8 0.00
1/22/22 - 0600 18.4 86 14.8 17.2 ENE | 65 14.6 30.3 5.3 0.00 0.0 105.6 18.2 21.8 0.00
1/22/22 - 0500 19.0 81 14.1 17.4 NE | 55 15.2 26.7 5.0 0.00 0.0 105.6 18.6 21.8 0.00
1/22/22 - 0400 19.4 80 14.4 17.8 NE | 55 13.3 24.3 7.2 0.00 0.0 105.7 19.3 21.8 0.00
1/22/22 - 0300 20.0 77 14.0 18.0 NE | 54 11.6 24.8 9.2 0.00 0.0 105.7 19.8 21.8 0.00
Max 29.9 86 19.2 25.2 - 15.2 30.3 22.5 0.00 0.0 105.7 23.9 30.8 0.00
Avg 23.9 73 16.4 21.3 - 9.8 22.1 14.6 0.00 0.0 105.4 - - -
Min 18.2 58 14.0 17.0 - 4.6 10.3 5.0 0.00 0.0 105.2 17.9 21.8 0.00
Total - - - - - - - - 0.00 - - - - -